Airfield :
LOGIN :

Register | Disclaimer

   EN    FR    IT 

 










Legend :    VFR   Marginal VFR   IFR   Intensive IFR   Very Intensive IFR
Visi :
Ceiling :
>= 8 km
>= 3000ft
5 to 8 km
1000 to 3000 ft
1500m to 5 km
500 to 1000 ft
800 to 1500m
200 to 500 ft
< 800m
< 200 ft
Symbols :   Thunderstorms  Fog  Heavy snow  Heavy precipitations  Wind > 20 kt
SIGMETs :     Misc.  Thunderstorms  Icing  Turbulence  Mountain Waves  Volcanic Ashes






- Airport Elevation : 1115 ft
- IATA code : GRZ


LOWG - Graz

CURRENT METAR :
  • 050650Z VRB02KT 9999 FEW003 BKN005 BKN012 18/16 Q1006 BECMG SCT005 SCT012 TEMPO FM0800 SHRA

EXPIRED METARs :
  • 050620Z VRB02KT 9999 FEW003 BKN006 17/16 Q1006 BECMG SCT005
  • 050550Z 22003KT 190V260 9999 BKN005 17/16 Q1007 BECMG SCT005
  • 050520Z 13003KT 100V180 9000 BKN005 17/16 Q1006 BECMG FM0600 SCT005
  • 050450Z 06006KT 020V090 5000 2000SE BR SCT003 FEW015CB 17/16 Q1006 RETSRA NOSIG
  • 050420Z 22003KT 180V270 8000 -TSRA SCT004 FEW015CB 17/16 Q1007 RESHRA TEMPO 4000 +SHRA

TAF AMD TAF LOWG
Valid from the 05 at 06:00 until the 06 at 06:00 UTC


050650Z 0506/0606 34006KT 9999 FEW020 BKN040 TX20/0516Z TN12/0604Z
PROB40 0506/0508 BKN007
TEMPO 0506/0512 35010KT SHRA TSRA BKN018 SCT020CB
PROB30
TEMPO 0506/0510 2000 +SHRA +TSRA
TEMPO 0513/0517 32009KT
PROB30
TEMPO 0600/0604 1200 BCFG



MET'MAP, your aeronautical weather chart ! - Copyright ORBIFLY December 2007 - Disclaimer

ORBIFLY MET'MAP TEAM :

Programming & Development : Alexandra Zaïnal
Concept & original design : Baudouin d'Aumeries
Assistance for programming : Marc-Olivier Méhu
Technical & hardware support : Manuel Goepfert

Contact : metmap@orbifly.com




SOURCES & CREDITS :

   NOAA